createdAt,value
2022-07-28T00:00:08.773Z,100.00
2022-07-28T00:02:36.125Z,100.00
2022-07-28T00:05:05.773Z,100.00
2022-07-28T00:07:32.787Z,100.00
2022-07-28T00:10:00.830Z,100.00
2022-07-28T00:12:28.248Z,100.00
2022-07-28T00:14:57.325Z,100.00
2022-07-28T00:17:26.014Z,100.00
2022-07-28T00:19:53.267Z,100.00
2022-07-28T00:22:21.675Z,100.00
2022-07-28T00:24:49.237Z,100.00
2022-07-28T00:27:19.222Z,100.00
2022-07-28T00:29:50.178Z,100.00
2022-07-28T00:32:18.914Z,100.00
2022-07-28T00:34:47.072Z,100.00
2022-07-28T00:37:14.857Z,100.00
2022-07-28T00:39:43.071Z,100.00
2022-07-28T00:42:10.199Z,100.00
2022-07-28T00:44:41.656Z,100.00
2022-07-28T00:47:08.927Z,100.00
2022-07-28T00:49:36.072Z,100.00
2022-07-28T00:52:05.452Z,100.00
2022-07-28T00:54:33.476Z,100.00
2022-07-28T00:57:01.492Z,100.00
2022-07-28T00:59:28.611Z,100.00
2022-07-28T01:01:57.625Z,100.00
2022-07-28T01:04:26.280Z,100.00
2022-07-28T01:07:02.006Z,100.00
2022-07-28T01:09:39.474Z,100.00
2022-07-28T01:12:40.195Z,100.00
2022-07-28T01:15:27.290Z,100.00
2022-07-28T01:18:10.941Z,100.00
2022-07-28T01:20:50.487Z,100.00
2022-07-28T01:23:29.451Z,100.00
2022-07-28T01:26:00.190Z,100.00
2022-07-28T01:28:57.380Z,100.00
2022-07-28T01:31:27.883Z,100.00
2022-07-28T01:34:05.636Z,100.00
2022-07-28T01:36:41.709Z,100.00
2022-07-28T01:39:09.857Z,100.00
2022-07-28T01:41:39.254Z,100.00
2022-07-28T01:44:10.406Z,100.00
2022-07-28T01:46:39.225Z,100.00
2022-07-28T01:49:09.735Z,100.00
2022-07-28T01:51:37.437Z,100.00
2022-07-28T01:54:07.330Z,100.00
2022-07-28T01:56:36.310Z,100.00
2022-07-28T01:59:09.701Z,100.00
2022-07-28T02:01:42.420Z,100.00
2022-07-28T02:04:12.427Z,100.00
2022-07-28T02:06:42.444Z,100.00
2022-07-28T02:09:10.898Z,100.00
2022-07-28T02:11:41.781Z,100.00
2022-07-28T02:14:23.564Z,100.00
2022-07-28T02:17:01.916Z,100.00
2022-07-28T02:19:31.803Z,100.00
2022-07-28T02:21:58.874Z,100.00
2022-07-28T02:24:28.597Z,100.00
2022-07-28T02:27:01.566Z,100.00
2022-07-28T02:29:50.231Z,100.00
2022-07-28T02:32:28.659Z,100.00
2022-07-28T02:35:29.083Z,100.00
2022-07-28T02:38:07.511Z,100.00
2022-07-28T02:40:37.950Z,100.00
2022-07-28T02:43:15.545Z,100.00
2022-07-28T02:45:45.707Z,100.00
2022-07-28T02:48:17.421Z,100.00
2022-07-28T02:50:46.459Z,100.00
2022-07-28T02:53:16.412Z,100.00
2022-07-28T02:55:47.285Z,100.00
2022-07-28T02:58:16.730Z,100.00
2022-07-28T03:00:44.431Z,100.00
2022-07-28T03:03:12.159Z,100.00
2022-07-28T03:05:41.822Z,100.00
2022-07-28T03:08:09.386Z,100.00
2022-07-28T03:10:36.579Z,100.00
2022-07-28T03:13:07.225Z,100.00
2022-07-28T03:15:36.468Z,100.00
2022-07-28T03:18:05.947Z,100.00
2022-07-28T03:20:34.673Z,100.00
2022-07-28T03:23:02.252Z,100.00
2022-07-28T03:26:00.186Z,100.00
2022-07-28T03:28:28.273Z,100.00
2022-07-28T03:31:03.226Z,100.00
2022-07-28T03:33:30.374Z,100.00
2022-07-28T03:36:06.708Z,100.00
2022-07-28T03:38:38.995Z,100.00
2022-07-28T03:41:09.545Z,100.00
2022-07-28T03:43:38.019Z,100.00
2022-07-28T03:46:11.237Z,100.00
2022-07-28T03:48:40.319Z,100.00
2022-07-28T03:51:07.573Z,100.00
2022-07-28T03:53:36.049Z,100.00
2022-07-28T03:56:03.396Z,100.00
2022-07-28T03:58:31.709Z,100.00
2022-07-28T04:00:59.295Z,100.00
2022-07-28T04:03:43.312Z,100.00
2022-07-28T04:06:15.101Z,100.00
2022-07-28T04:08:43.603Z,100.00
2022-07-28T04:11:10.599Z,100.00
2022-07-28T04:13:37.711Z,100.00
2022-07-28T04:16:07.114Z,100.00
2022-07-28T04:18:35.825Z,100.00
2022-07-28T04:21:02.889Z,100.00
2022-07-28T04:23:30.838Z,100.00
2022-07-28T04:25:58.022Z,100.00
2022-07-28T04:28:26.438Z,100.00
2022-07-28T04:30:53.663Z,100.00
2022-07-28T04:33:20.870Z,100.00
2022-07-28T04:35:47.962Z,100.00
2022-07-28T04:38:17.111Z,100.00
2022-07-28T04:40:44.110Z,100.00
2022-07-28T04:43:11.352Z,100.00
2022-07-28T04:45:38.657Z,100.00
2022-07-28T04:48:13.430Z,100.00
2022-07-28T04:50:42.067Z,100.00
2022-07-28T04:53:09.096Z,100.00
2022-07-28T04:55:38.686Z,100.00
2022-07-28T04:58:06.987Z,100.00
2022-07-28T05:00:36.491Z,100.00
2022-07-28T05:03:05.733Z,100.00
2022-07-28T05:05:32.721Z,100.00
2022-07-28T05:07:59.756Z,100.00
2022-07-28T05:10:26.806Z,100.00
2022-07-28T05:12:56.163Z,100.00
2022-07-28T05:15:23.612Z,100.00
2022-07-28T05:17:50.858Z,100.00
2022-07-28T05:20:17.922Z,100.00
2022-07-28T05:22:50.888Z,100.00
2022-07-28T05:25:19.668Z,100.00
2022-07-28T05:27:47.735Z,100.00
2022-07-28T05:30:15.722Z,100.00
2022-07-28T05:32:43.126Z,100.00
2022-07-28T05:35:10.158Z,100.00
2022-07-28T05:37:38.173Z,100.00
2022-07-28T05:40:14.201Z,100.00
2022-07-28T05:42:43.050Z,100.00
2022-07-28T05:45:15.669Z,100.00
2022-07-28T05:47:48.028Z,100.00
2022-07-28T05:50:16.947Z,100.00
2022-07-28T05:52:45.284Z,100.00
2022-07-28T05:55:12.615Z,100.00
2022-07-28T05:57:40.696Z,100.00
2022-07-28T06:00:13.079Z,100.00
2022-07-28T06:02:41.519Z,100.00
2022-07-28T06:05:08.968Z,100.00
2022-07-28T06:07:43.021Z,100.00
2022-07-28T06:10:12.886Z,100.00
2022-07-28T06:12:53.545Z,100.00
2022-07-28T06:15:26.782Z,100.00
2022-07-28T06:17:57.591Z,100.00
2022-07-28T06:20:27.868Z,100.00
2022-07-28T06:22:58.247Z,100.00
2022-07-28T06:25:28.522Z,100.00
2022-07-28T06:27:59.606Z,100.00
2022-07-28T06:30:27.976Z,100.00
2022-07-28T06:32:58.043Z,100.00
2022-07-28T06:35:26.629Z,100.00
2022-07-28T06:37:53.928Z,100.00
2022-07-28T06:40:23.998Z,100.00
2022-07-28T06:42:51.910Z,100.00
2022-07-28T06:45:21.203Z,100.00
2022-07-28T06:47:51.422Z,100.00
2022-07-28T06:50:25.820Z,100.00
2022-07-28T06:52:59.044Z,100.00
2022-07-28T06:55:34.609Z,100.00
2022-07-28T06:58:06.465Z,100.00
2022-07-28T07:00:34.126Z,100.00
2022-07-28T07:03:01.887Z,100.00
2022-07-28T07:05:32.791Z,100.00
2022-07-28T07:08:00.417Z,100.00
2022-07-28T07:10:27.505Z,100.00
2022-07-28T07:12:56.464Z,100.00
2022-07-28T07:15:23.537Z,100.00
2022-07-28T07:17:51.195Z,100.00
2022-07-28T07:20:19.928Z,100.00
2022-07-28T07:22:47.280Z,100.00
2022-07-28T07:25:16.820Z,100.00
2022-07-28T07:27:44.507Z,100.00
2022-07-28T07:30:12.703Z,100.00
2022-07-28T07:32:39.993Z,100.00
2022-07-28T07:35:07.663Z,100.00
2022-07-28T07:37:37.806Z,100.00
2022-07-28T07:40:06.755Z,100.00
2022-07-28T07:42:37.082Z,100.00
2022-07-28T07:45:06.900Z,100.00
2022-07-28T07:47:35.100Z,100.00
2022-07-28T07:50:04.390Z,98.12
2022-07-28T07:52:32.266Z,95.44
2022-07-28T07:54:59.459Z,94.36
2022-07-28T07:57:27.249Z,92.71
2022-07-28T07:59:56.495Z,91.81
2022-07-28T08:02:23.560Z,91.93
2022-07-28T08:04:57.736Z,90.48
2022-07-28T08:07:26.766Z,87.03
2022-07-28T08:09:56.971Z,82.05
2022-07-28T08:12:25.234Z,83.38
2022-07-28T08:14:53.637Z,78.90
2022-07-28T08:17:25.943Z,89.11
2022-07-28T08:19:58.267Z,88.45
2022-07-28T08:22:26.658Z,77.22
2022-07-28T08:24:53.816Z,72.96
2022-07-28T08:27:21.291Z,73.45
2022-07-28T08:29:48.352Z,71.62
2022-07-28T08:32:15.443Z,69.98
2022-07-28T08:34:42.497Z,67.50
2022-07-28T08:37:09.812Z,67.66
2022-07-28T08:39:36.927Z,65.00
2022-07-28T08:42:09.016Z,65.96
2022-07-28T08:44:56.459Z,64.37
2022-07-28T08:47:35.593Z,62.25
2022-07-28T08:50:08.664Z,61.35
2022-07-28T08:52:39.476Z,59.24
2022-07-28T08:55:08.606Z,58.52
2022-07-28T08:57:41.679Z,59.87
2022-07-28T09:00:10.260Z,62.09
2022-07-28T09:02:38.897Z,60.27
2022-07-28T09:05:07.551Z,60.32
2022-07-28T09:07:39.371Z,59.53
2022-07-28T09:10:07.247Z,58.08
2022-07-28T09:12:36.174Z,57.58
2022-07-28T09:15:07.536Z,56.49
2022-07-28T09:17:36.992Z,57.01
2022-07-28T09:20:11.235Z,56.84
2022-07-28T09:23:42.353Z,54.75
2022-07-28T09:26:12.423Z,56.65
2022-07-28T09:28:53.485Z,54.79
2022-07-28T09:31:23.569Z,54.69
2022-07-28T09:34:05.192Z,54.68
2022-07-28T09:36:40.662Z,54.31
2022-07-28T09:39:08.502Z,54.69
2022-07-28T09:41:51.732Z,53.63
2022-07-28T09:44:22.481Z,54.23
2022-07-28T09:46:51.323Z,55.02
2022-07-28T09:49:28.108Z,54.64
2022-07-28T09:52:00.962Z,52.99
2022-07-28T09:54:28.107Z,53.57
2022-07-28T09:56:57.611Z,52.66
2022-07-28T09:59:25.876Z,51.83
2022-07-28T10:02:01.706Z,51.90
2022-07-28T10:04:41.469Z,50.64
2022-07-28T10:07:17.395Z,49.01
2022-07-28T10:10:21.737Z,50.27
2022-07-28T10:12:50.044Z,49.73
2022-07-28T10:15:46.811Z,50.09
2022-07-28T10:18:18.190Z,50.27
2022-07-28T10:20:45.867Z,50.39
2022-07-28T10:23:17.461Z,50.11
2022-07-28T10:25:45.567Z,50.50
2022-07-28T10:28:21.504Z,50.39
2022-07-28T10:30:52.017Z,49.72
2022-07-28T10:33:22.563Z,48.62
2022-07-28T10:35:55.382Z,47.96
2022-07-28T10:38:32.753Z,48.44
2022-07-28T10:41:03.090Z,47.88
2022-07-28T10:43:33.928Z,47.99
2022-07-28T10:46:08.105Z,47.94
2022-07-28T10:48:38.714Z,47.78
2022-07-28T10:51:06.561Z,48.14
2022-07-28T10:53:43.332Z,48.02
2022-07-28T10:56:23.723Z,47.21
2022-07-28T10:59:21.976Z,48.01
2022-07-28T11:01:58.017Z,48.83
2022-07-28T11:04:45.153Z,48.96
2022-07-28T11:07:14.485Z,48.53
2022-07-28T11:09:41.779Z,48.41
2022-07-28T11:12:11.642Z,47.84
2022-07-28T11:14:39.842Z,47.94
2022-07-28T11:17:10.341Z,47.28
2022-07-28T11:20:00.928Z,46.17
2022-07-28T11:22:35.091Z,46.03
2022-07-28T11:25:19.021Z,46.72
2022-07-28T11:27:52.255Z,46.51
2022-07-28T11:30:22.539Z,46.71
2022-07-28T11:32:58.774Z,47.28
2022-07-28T11:35:48.574Z,47.09
2022-07-28T11:38:15.913Z,47.10
2022-07-28T11:40:48.894Z,46.54
2022-07-28T11:43:28.620Z,47.05
2022-07-28T11:46:09.645Z,45.76
2022-07-28T11:48:41.835Z,45.53
2022-07-28T11:51:10.924Z,44.95
2022-07-28T11:53:46.551Z,45.31
2022-07-28T11:56:23.414Z,44.03
2022-07-28T11:58:58.561Z,44.02
2022-07-28T12:01:27.136Z,40.71
2022-07-28T12:03:59.335Z,39.33
2022-07-28T12:06:37.707Z,38.59
2022-07-28T12:09:11.362Z,37.83
2022-07-28T12:11:43.941Z,37.85
2022-07-28T12:14:16.429Z,38.17
2022-07-28T12:16:51.620Z,35.79
2022-07-28T12:19:22.541Z,36.39
2022-07-28T12:21:53.603Z,37.32
2022-07-28T12:24:27.891Z,36.99
2022-07-28T12:26:59.514Z,37.71
2022-07-28T12:29:32.274Z,39.89
2022-07-28T12:32:06.577Z,39.80
2022-07-28T12:34:36.426Z,39.81
2022-07-28T12:37:09.715Z,39.81
2022-07-28T12:39:39.732Z,39.10
2022-07-28T12:42:10.871Z,39.32
2022-07-28T12:44:41.048Z,39.13
2022-07-28T12:47:11.861Z,38.71
2022-07-28T12:49:40.696Z,40.07
2022-07-28T12:52:24.481Z,40.14
2022-07-28T12:54:55.463Z,39.94
2022-07-28T12:57:49.277Z,40.56
2022-07-28T13:00:27.392Z,39.89
2022-07-28T13:02:58.701Z,41.08
2022-07-28T13:05:31.493Z,40.90
2022-07-28T13:08:06.491Z,41.78
2022-07-28T13:10:39.649Z,41.16
2022-07-28T13:13:10.623Z,41.05
2022-07-28T13:15:37.654Z,38.60
2022-07-28T13:18:06.374Z,36.92
2022-07-28T13:20:47.961Z,34.88
2022-07-28T13:23:15.023Z,33.18
2022-07-28T13:25:42.246Z,33.63
2022-07-28T13:28:27.273Z,32.65
2022-07-28T13:30:56.624Z,33.82
2022-07-28T13:33:24.146Z,33.99
2022-07-28T13:35:52.931Z,32.52
2022-07-28T13:38:21.213Z,33.32
2022-07-28T13:40:48.340Z,34.12
2022-07-28T13:43:36.154Z,34.67
2022-07-28T13:46:06.245Z,34.58
2022-07-28T13:48:36.198Z,34.27
2022-07-28T13:51:04.862Z,34.85
2022-07-28T13:53:32.738Z,36.89
2022-07-28T13:56:00.192Z,37.10
2022-07-28T13:58:27.490Z,38.19
2022-07-28T14:00:56.602Z,37.89
2022-07-28T14:03:24.008Z,38.64
2022-07-28T14:05:52.951Z,39.04
2022-07-28T14:08:25.092Z,38.38
2022-07-28T14:11:01.450Z,39.16
2022-07-28T14:13:31.700Z,37.62
2022-07-28T14:16:09.835Z,37.43
2022-07-28T14:18:40.980Z,35.64
2022-07-28T14:21:09.157Z,35.34
2022-07-28T14:23:38.728Z,34.69
2022-07-28T14:26:34.555Z,35.27
2022-07-28T14:28:59.070Z,35.52
2022-07-28T14:31:27.260Z,37.20
2022-07-28T14:33:57.896Z,38.09
2022-07-28T14:36:27.316Z,37.76
2022-07-28T14:38:56.590Z,37.55
2022-07-28T14:41:27.049Z,37.33
2022-07-28T14:43:57.706Z,37.94
2022-07-28T14:46:29.712Z,36.72
2022-07-28T14:48:58.023Z,37.00
2022-07-28T14:51:26.311Z,36.18
2022-07-28T14:53:57.511Z,36.05
2022-07-28T14:56:24.693Z,35.13
2022-07-28T14:58:52.947Z,34.15
2022-07-28T15:01:23.639Z,31.42
2022-07-28T15:03:51.514Z,32.64
2022-07-28T15:06:18.676Z,33.10
2022-07-28T15:08:45.806Z,32.92
2022-07-28T15:11:12.905Z,31.89
2022-07-28T15:13:40.516Z,31.51
2022-07-28T15:16:09.070Z,32.47
2022-07-28T15:18:36.419Z,31.45
2022-07-28T15:21:03.593Z,31.76
2022-07-28T15:23:30.635Z,31.26
2022-07-28T15:25:58.267Z,31.85
2022-07-28T15:28:27.737Z,31.55
2022-07-28T15:30:56.539Z,31.95
2022-07-28T15:33:27.740Z,32.64
2022-07-28T15:35:59.862Z,32.40
2022-07-28T15:38:31.619Z,34.04
2022-07-28T15:40:59.334Z,34.59
2022-07-28T15:43:28.706Z,35.80
2022-07-28T15:45:57.947Z,35.93
2022-07-28T15:48:27.157Z,37.71
2022-07-28T15:50:56.508Z,38.36
2022-07-28T15:53:23.707Z,39.25
2022-07-28T15:55:52.037Z,39.66
2022-07-28T15:58:21.734Z,39.42
2022-07-28T16:00:51.544Z,40.27
2022-07-28T16:03:21.771Z,40.84
2022-07-28T16:05:51.310Z,40.82
2022-07-28T16:08:22.948Z,41.08
2022-07-28T16:10:54.185Z,41.60
2022-07-28T16:13:33.293Z,42.35
2022-07-28T16:16:08.068Z,42.03
2022-07-28T16:18:40.145Z,42.00
2022-07-28T16:21:08.487Z,42.82
2022-07-28T16:23:38.310Z,42.96
2022-07-28T16:26:09.256Z,43.72
2022-07-28T16:28:36.779Z,43.71
2022-07-28T16:31:06.517Z,44.12
2022-07-28T16:33:34.998Z,43.33
2022-07-28T16:36:02.639Z,44.14
2022-07-28T16:38:30.246Z,44.21
2022-07-28T16:40:57.843Z,44.39
2022-07-28T16:43:27.167Z,44.57
2022-07-28T16:45:56.583Z,44.84
2022-07-28T16:48:31.310Z,45.49
2022-07-28T16:50:58.437Z,45.40
2022-07-28T16:53:27.887Z,45.40
2022-07-28T16:55:57.409Z,45.97
2022-07-28T16:58:24.636Z,46.26
2022-07-28T17:00:51.927Z,45.87
2022-07-28T17:03:20.530Z,46.66
2022-07-28T17:05:47.699Z,46.90
2022-07-28T17:08:14.830Z,46.35
2022-07-28T17:10:42.041Z,45.91
2022-07-28T17:13:11.917Z,46.67
2022-07-28T17:15:40.379Z,46.77
2022-07-28T17:18:08.071Z,46.65
2022-07-28T17:20:41.811Z,46.91
2022-07-28T17:23:09.477Z,47.58
2022-07-28T17:28:27.287Z,47.71
2022-07-28T17:30:56.730Z,47.87
2022-07-28T17:33:27.380Z,47.63
2022-07-28T17:35:58.924Z,47.84
2022-07-28T17:38:32.966Z,47.62
2022-07-28T17:41:05.764Z,47.77
2022-07-28T17:43:32.944Z,48.38
2022-07-28T17:46:01.051Z,47.98
2022-07-28T17:48:30.760Z,48.23
2022-07-28T17:50:58.063Z,48.57
2022-07-28T17:53:28.120Z,48.54
2022-07-28T17:56:01.229Z,48.73
2022-07-28T17:58:29.563Z,48.97
2022-07-28T18:01:11.033Z,48.84
2022-07-28T18:03:59.715Z,49.20
2022-07-28T18:06:29.247Z,50.22
2022-07-28T18:09:05.947Z,49.71
2022-07-28T18:11:55.594Z,50.39
2022-07-28T18:14:27.545Z,50.08
2022-07-28T18:16:57.483Z,50.11
2022-07-28T18:19:27.344Z,51.00
2022-07-28T18:21:57.639Z,52.37
2022-07-28T18:24:27.081Z,52.61
2022-07-28T18:26:58.033Z,52.51
2022-07-28T18:29:37.777Z,53.16
2022-07-28T18:32:07.803Z,54.71
2022-07-28T18:34:40.433Z,54.80
2022-07-28T18:37:07.552Z,54.81
2022-07-28T18:39:37.385Z,55.53
2022-07-28T18:42:07.479Z,55.61
2022-07-28T18:44:35.154Z,56.07
2022-07-28T18:47:02.263Z,56.42
2022-07-28T18:49:29.600Z,56.81
2022-07-28T18:52:08.411Z,58.16
2022-07-28T18:54:36.418Z,58.54
2022-07-28T18:57:06.504Z,58.68
2022-07-28T18:59:33.720Z,58.90
2022-07-28T19:02:01.336Z,59.09
2022-07-28T19:04:28.552Z,60.69
2022-07-28T19:07:00.829Z,61.35
2022-07-28T19:09:30.440Z,61.54
2022-07-28T19:12:06.444Z,62.87
2022-07-28T19:14:34.065Z,62.81
2022-07-28T19:17:05.178Z,64.67
2022-07-28T19:19:36.706Z,64.71
2022-07-28T19:22:06.459Z,66.12
2022-07-28T19:24:36.269Z,65.95
2022-07-28T19:27:06.437Z,67.90
2022-07-28T19:29:39.211Z,69.88
2022-07-28T19:32:06.590Z,71.46
2022-07-28T19:34:37.553Z,72.20
2022-07-28T19:37:09.678Z,71.60
2022-07-28T19:39:45.971Z,72.08
2022-07-28T19:42:13.317Z,74.02
2022-07-28T19:44:42.352Z,75.54
2022-07-28T19:47:09.400Z,77.23
2022-07-28T19:49:39.312Z,76.92
2022-07-28T19:52:09.097Z,77.91
2022-07-28T19:54:38.264Z,80.30
2022-07-28T19:57:12.601Z,81.32
2022-07-28T19:59:41.764Z,82.03
2022-07-28T20:02:11.538Z,83.32
2022-07-28T20:04:38.911Z,83.40
2022-07-28T20:07:06.491Z,84.44
2022-07-28T20:09:35.735Z,86.62
2022-07-28T20:12:03.158Z,88.17
2022-07-28T20:14:30.228Z,88.54
2022-07-28T20:16:57.839Z,89.25
2022-07-28T20:19:27.488Z,91.17
2022-07-28T20:21:56.974Z,92.12
2022-07-28T20:24:29.852Z,92.39
2022-07-28T20:27:01.281Z,93.88
2022-07-28T20:29:28.338Z,94.16
2022-07-28T20:31:57.651Z,94.94
2022-07-28T20:34:25.935Z,94.47
2022-07-28T20:36:56.827Z,95.41
2022-07-28T20:39:43.857Z,96.31
2022-07-28T20:42:11.434Z,97.81
2022-07-28T20:44:38.778Z,96.13
2022-07-28T20:47:06.475Z,97.53
2022-07-28T20:49:33.819Z,99.27
2022-07-28T20:52:02.258Z,100.00
2022-07-28T20:54:29.325Z,100.00
2022-07-28T20:57:02.139Z,100.00
2022-07-28T20:59:32.173Z,100.00
2022-07-28T21:01:59.324Z,100.00
2022-07-28T21:04:29.262Z,100.00
2022-07-28T21:07:02.117Z,100.00
2022-07-28T21:09:31.890Z,100.00
2022-07-28T21:11:59.110Z,100.00
2022-07-28T21:14:28.510Z,100.00
2022-07-28T21:16:58.755Z,100.00
2022-07-28T21:19:27.261Z,100.00
2022-07-28T21:21:56.768Z,100.00
2022-07-28T21:24:23.900Z,100.00
2022-07-28T21:26:51.836Z,100.00
2022-07-28T21:32:04.267Z,100.00
2022-07-28T21:34:34.236Z,100.00
2022-07-28T21:37:06.955Z,100.00
2022-07-28T21:39:35.614Z,100.00
2022-07-28T21:42:06.934Z,100.00
2022-07-28T21:44:39.084Z,100.00
2022-07-28T21:47:06.555Z,100.00
2022-07-28T21:49:33.752Z,100.00
2022-07-28T21:52:00.895Z,100.00
2022-07-28T21:54:28.004Z,100.00
2022-07-28T21:56:57.662Z,100.00
2022-07-28T21:59:24.738Z,100.00
2022-07-28T22:01:51.944Z,100.00
2022-07-28T22:04:19.972Z,100.00
2022-07-28T22:06:47.509Z,100.00
2022-07-28T22:09:15.142Z,100.00
2022-07-28T22:11:42.322Z,100.00
2022-07-28T22:14:09.427Z,100.00
2022-07-28T22:16:36.998Z,100.00
2022-07-28T22:19:06.609Z,100.00
2022-07-28T22:21:37.143Z,100.00
2022-07-28T22:24:04.906Z,100.00
2022-07-28T22:26:31.935Z,100.00
2022-07-28T22:28:59.051Z,100.00
2022-07-28T22:31:29.244Z,100.00
2022-07-28T22:33:57.866Z,100.00
2022-07-28T22:36:26.127Z,100.00
2022-07-28T22:38:57.656Z,100.00
2022-07-28T22:41:25.054Z,100.00
2022-07-28T22:43:53.510Z,100.00
2022-07-28T22:46:21.528Z,100.00
2022-07-28T22:48:48.728Z,100.00
2022-07-28T22:51:16.345Z,100.00
2022-07-28T22:53:43.445Z,100.00
2022-07-28T22:56:23.200Z,100.00
2022-07-28T22:58:53.142Z,100.00
2022-07-28T23:01:23.016Z,100.00
2022-07-28T23:03:52.995Z,100.00
2022-07-28T23:06:21.468Z,100.00
2022-07-28T23:08:48.612Z,100.00
2022-07-28T23:11:15.745Z,100.00
2022-07-28T23:13:42.910Z,100.00
2022-07-28T23:16:11.636Z,100.00
2022-07-28T23:18:40.432Z,100.00
2022-07-28T23:21:08.370Z,100.00
2022-07-28T23:23:37.766Z,100.00
2022-07-28T23:26:06.525Z,100.00
2022-07-28T23:28:36.117Z,100.00
2022-07-28T23:31:06.060Z,100.00
2022-07-28T23:33:55.317Z,100.00
2022-07-28T23:36:26.771Z,100.00
2022-07-28T23:38:58.669Z,100.00
2022-07-28T23:41:27.766Z,100.00
2022-07-28T23:43:57.199Z,100.00
2022-07-28T23:46:24.391Z,100.00
2022-07-28T23:48:51.820Z,100.00
2022-07-28T23:51:21.107Z,100.00
2022-07-28T23:53:55.890Z,100.00
2022-07-28T23:56:23.782Z,100.00
2022-07-28T23:58:53.774Z,100.00
